Search for airport 
image banner adimage banner adimage banner ad
image banner ad

CYHY - Merlyn Carter Airport

Located in Hay River, Canada

ICAO - CYHY, IATA - YHY

Data provided by Airmate  

General information

Coordinates: N60°50'23" W115°46'58"
Elevation is 541 feet MSL.
Magnetic variation is 16.0756° East
View others Airports in Northwest Territories

Operational data

Special qualification required
Current time UTC:
Current local time:
Weather
METAR: CYHY 221700Z 14013G19KT 15SM FEW150 BKN240 05/M02 A2968 RMK AC1CI6 SLP062
TAF: TAF CYHY 221138Z 2212/2224 13010KT P6SM SKC RMK NXT FCST BY 221800Z
View NOTAMs / SUP AIP / TFR affecting this airport [VIEW]
Communications frequencies: [VIEW]

Runways:

RWY identifierQFULength (ft)Width (ft)SurfaceLDA (ft)
14155°6000150ASPH6000
32335°6000150ASPH6000
0565°4001150GRAVE4001
23245°4001150GRAVE4001

Airport contact information

Address: Hay River Canada

Satellite view of CYHY